Time;durP1;ratioP1;P1;durP2;ratioP2;P2;SDS_P1;SDS_P2;PMS_P1;PMS_P2;Temp;Humidity;BMP_temperature;BMP_pressure;BME280_temperature;BME280_humidity;BME280_pressure;Samples;Min_cycle;Max_cycle;Signal;HPM_P1;HPM_P2
2022/10/25 00:02:24;;;;;;;5.35;1.10;;;;;;;;;;6298388;28;20089;-79
2022/10/25 00:05:27;;;;;;;6.60;1.20;;;;;;;;;;6283098;28;20055;-79
2022/10/25 00:08:29;;;;;;;8.20;1.10;;;;;;;;;;6305785;28;20045;-79
2022/10/25 00:11:31;;;;;;;7.20;0.82;;;;;;;;;;6301230;28;20044;-80
2022/10/25 00:14:34;;;;;;;5.97;0.90;;;;;;;;;;6298579;28;20435;-80
2022/10/25 00:17:36;;;;;;;4.90;1.10;;;;;;;;;;6284623;28;20055;-80
2022/10/25 00:20:37;;;;;;;3.58;1.20;;;;;;;;;;6307101;28;20107;-80
2022/10/25 00:23:41;;;;;;;6.32;1.02;;;;;;;;;;6308152;28;20190;-79
2022/10/25 00:26:42;;;;;;;6.53;1.77;;;;;;;;;;6306707;28;20059;-80
2022/10/25 00:29:44;;;;;;;4.00;1.05;;;;;;;;;;6289039;28;20044;-78
2022/10/25 00:32:46;;;;;;;3.42;1.00;;;;;;;;;;6308486;28;20052;-78
2022/10/25 00:35:48;;;;;;;5.50;1.17;;;;;;;;;;6281982;28;20415;-80
2022/10/25 00:38:49;;;;;;;3.85;1.00;;;;;;;;;;6301359;28;23645;-79
2022/10/25 00:41:51;;;;;;;3.38;0.95;;;;;;;;;;6298088;28;20423;-80
2022/10/25 00:44:55;;;;;;;4.63;1.15;;;;;;;;;;6287698;28;20044;-79
2022/10/25 00:48:08;;;;;;;4.57;1.20;;;;;;;;;;6293435;28;20129;-79
2022/10/25 00:51:10;;;;;;;6.63;1.00;;;;;;;;;;6302481;28;20040;-79
2022/10/25 00:54:18;;;;;;;4.63;1.20;;;;;;;;;;6310678;28;20316;-79
2022/10/25 00:57:40;;;;;;;7.13;1.17;;;;;;;;;;6287153;28;20076;-79
2022/10/25 01:00:44;;;;;;;7.88;1.40;;;;;;;;;;6307426;28;20050;-78
2022/10/25 01:03:48;;;;;;;2.67;1.10;;;;;;;;;;6300353;28;20050;-80
2022/10/25 01:06:51;;;;;;;8.20;1.58;;;;;;;;;;6304577;28;20739;-80
2022/10/25 01:09:53;;;;;;;;;;;;;;;;;;6310378;28;20182;-79
2022/10/25 01:12:55;;;;;;;7.90;2.15;;;;;;;;;;6307169;28;19931;-79
2022/10/25 01:16:03;;;;;;;3.70;1.00;;;;;;;;;;6300839;28;20056;-79
2022/10/25 01:19:26;;;;;;;5.35;1.30;;;;;;;;;;6303559;28;20048;-79
2022/10/25 01:22:54;;;;;;;;;;;;;;;;;;6309067;28;20048;-79
2022/10/25 01:26:05;;;;;;;7.82;1.25;;;;;;;;;;6301676;28;19928;-81
2022/10/25 01:29:35;;;;;;;5.50;1.20;;;;;;;;;;6308080;28;20048;-80
2022/10/25 01:32:47;;;;;;;7.32;1.08;;;;;;;;;;6307843;28;20040;-79
2022/10/25 01:36:17;;;;;;;7.13;1.00;;;;;;;;;;6304961;28;20040;-79
2022/10/25 01:39:22;;;;;;;3.88;1.13;;;;;;;;;;6293727;28;20055;-79
2022/10/25 01:42:42;;;;;;;5.57;1.00;;;;;;;;;;6308099;28;20052;-80
2022/10/25 01:45:55;;;;;;;5.82;1.33;;;;;;;;;;6305703;28;20052;-80
2022/10/25 01:49:04;;;;;;;2.72;1.70;;;;;;;;;;6307961;28;20044;-79
2022/10/25 01:52:06;;;;;;;7.95;1.52;;;;;;;;;;6311449;28;20044;-78
2022/10/25 01:55:12;;;;;;;6.88;1.80;;;;;;;;;;6275544;28;20051;-80
2022/10/25 01:58:56;;;;;;;4.85;1.73;;;;;;;;;;6289061;28;20048;-80
2022/10/25 02:02:25;;;;;;;7.10;2.00;;;;;;;;;;6295167;28;20040;-80
2022/10/25 02:05:38;;;;;;;4.28;1.50;;;;;;;;;;6297504;28;20055;-80
2022/10/25 02:08:48;;;;;;;3.40;1.42;;;;;;;;;;6308767;28;20043;-79
2022/10/25 02:11:51;;;;;;;7.60;1.95;;;;;;;;;;6285329;28;20047;-80
2022/10/25 02:15:38;;;;;;;6.82;1.70;;;;;;;;;;6309583;28;20048;-79
2022/10/25 02:18:43;;;;;;;6.22;1.77;;;;;;;;;;6309540;28;20055;-79
2022/10/25 02:21:46;;;;;;;5.95;1.20;;;;;;;;;;6309527;28;20044;-79
2022/10/25 02:24:50;;;;;;;6.88;1.13;;;;;;;;;;6306140;28;20043;-80
2022/10/25 02:27:54;;;;;;;6.82;1.42;;;;;;;;;;6288348;28;20060;-79
2022/10/25 02:30:57;;;;;;;4.60;1.33;;;;;;;;;;6315129;28;20077;-79
2022/10/25 02:34:00;;;;;;;9.57;1.40;;;;;;;;;;6313989;28;20064;-80
2022/10/25 02:37:01;;;;;;;7.83;1.30;;;;;;;;;;6290099;28;20564;-79
2022/10/25 02:40:04;;;;;;;4.65;0.98;;;;;;;;;;6295961;28;20044;-79
2022/10/25 02:43:06;;;;;;;3.80;1.00;;;;;;;;;;6280930;28;20531;-78
2022/10/25 02:46:14;;;;;;;4.85;1.00;;;;;;;;;;6292008;28;20048;-79
2022/10/25 02:49:16;;;;;;;9.48;1.13;;;;;;;;;;6299455;28;20255;-79
2022/10/25 02:52:17;;;;;;;8.32;1.48;;;;;;;;;;6287834;28;20048;-79
2022/10/25 02:55:19;;;;;;;4.03;1.50;;;;;;;;;;6303897;28;20042;-80
2022/10/25 02:58:20;;;;;;;5.75;1.75;;;;;;;;;;6304289;28;20051;-79
2022/10/25 03:01:23;;;;;;;5.72;1.23;;;;;;;;;;6303704;28;20500;-80
2022/10/25 03:04:25;;;;;;;3.58;0.93;;;;;;;;;;6302843;28;20053;-79
2022/10/25 03:07:27;;;;;;;6.45;0.93;;;;;;;;;;6307555;28;20240;-80
2022/10/25 03:10:29;;;;;;;3.45;0.90;;;;;;;;;;6301474;28;20048;-80
2022/10/25 03:13:30;;;;;;;6.07;1.20;;;;;;;;;;6301013;28;20048;-79
2022/10/25 03:16:32;;;;;;;6.50;1.23;;;;;;;;;;6290560;28;20043;-80
2022/10/25 03:19:34;;;;;;;6.32;1.10;;;;;;;;;;6276818;28;20067;-80
2022/10/25 03:22:35;;;;;;;5.90;1.08;;;;;;;;;;6281434;28;20051;-80
2022/10/25 03:25:37;;;;;;;8.95;1.52;;;;;;;;;;6300988;28;20612;-81
2022/10/25 03:28:39;;;;;;;3.50;0.90;;;;;;;;;;6300484;28;20066;-80
2022/10/25 03:31:41;;;;;;;4.55;1.00;;;;;;;;;;6303782;28;20044;-80
2022/10/25 03:34:42;;;;;;;5.72;1.67;;;;;;;;;;6300036;28;20036;-79
2022/10/25 03:37:44;;;;;;;10.23;2.53;;;;;;;;;;6300915;28;20133;-80
2022/10/25 03:40:46;;;;;;;3.25;1.40;;;;;;;;;;6299904;28;20044;-80
2022/10/25 03:43:48;;;;;;;6.03;1.75;;;;;;;;;;6302893;28;20159;-81
2022/10/25 03:46:50;;;;;;;6.32;2.40;;;;;;;;;;6302332;28;20058;-80
2022/10/25 03:49:52;;;;;;;6.22;1.10;;;;;;;;;;6299507;28;20838;-80
2022/10/25 03:52:53;;;;;;;3.67;1.40;;;;;;;;;;6302755;28;20076;-80
2022/10/25 03:55:55;;;;;;;5.88;1.60;;;;;;;;;;6284954;28;20050;-81
2022/10/25 03:58:57;;;;;;;7.70;2.00;;;;;;;;;;6284080;28;20127;-80
2022/10/25 04:02:01;;;;;;;7.53;1.20;;;;;;;;;;6303534;28;20043;-81
2022/10/25 04:05:04;;;;;;;3.67;1.33;;;;;;;;;;6298586;28;20050;-80
2022/10/25 04:08:06;;;;;;;4.57;1.17;;;;;;;;;;6303722;28;20059;-80
2022/10/25 04:11:08;;;;;;;3.17;1.20;;;;;;;;;;6293660;28;20058;-80
2022/10/25 04:14:09;;;;;;;6.75;1.30;;;;;;;;;;6283135;28;22198;-80
2022/10/25 04:17:11;;;;;;;6.15;1.27;;;;;;;;;;6302350;28;20040;-79
2022/10/25 04:20:13;;;;;;;5.40;1.02;;;;;;;;;;6283765;28;20047;-80
2022/10/25 04:23:15;;;;;;;7.30;1.25;;;;;;;;;;6288555;28;20122;-80
2022/10/25 04:26:18;;;;;;;9.07;1.40;;;;;;;;;;6299982;28;20047;-81
2022/10/25 04:29:20;;;;;;;6.60;1.70;;;;;;;;;;6300209;28;20059;-80
2022/10/25 04:32:22;;;;;;;4.40;1.10;;;;;;;;;;6298012;28;20100;-80
2022/10/25 04:35:24;;;;;;;6.32;1.27;;;;;;;;;;6299583;28;20138;-81
2022/10/25 04:38:25;;;;;;;7.32;1.40;;;;;;;;;;6297715;28;20048;-80
2022/10/25 04:41:27;;;;;;;6.38;1.38;;;;;;;;;;6304555;28;20050;-81
2022/10/25 04:44:29;;;;;;;6.47;1.55;;;;;;;;;;6302258;28;20110;-80
2022/10/25 04:47:32;;;;;;;3.05;1.25;;;;;;;;;;6297074;28;20040;-80
2022/10/25 04:50:34;;;;;;;3.22;1.20;;;;;;;;;;6304683;28;20113;-81
2022/10/25 04:53:35;;;;;;;4.10;1.42;;;;;;;;;;6297066;28;20052;-80
2022/10/25 04:56:38;;;;;;;4.60;1.50;;;;;;;;;;6303104;28;20050;-80
2022/10/25 04:59:40;;;;;;;9.05;1.83;;;;;;;;;;6293780;28;20078;-80
2022/10/25 05:02:42;;;;;;;5.45;1.50;;;;;;;;;;6304106;28;20377;-80
2022/10/25 05:05:43;;;;;;;6.95;1.70;;;;;;;;;;6301624;28;20060;-80
2022/10/25 05:08:47;;;;;;;4.22;1.63;;;;;;;;;;6305563;28;20756;-81
2022/10/25 05:11:49;;;;;;;5.88;1.50;;;;;;;;;;6299578;28;20408;-80
2022/10/25 05:14:51;;;;;;;6.32;1.90;;;;;;;;;;6290325;28;20039;-79
2022/10/25 05:17:57;;;;;;;12.10;1.80;;;;;;;;;;6291218;28;20044;-81
2022/10/25 05:21:03;;;;;;;3.72;1.90;;;;;;;;;;6258142;28;20063;-80
2022/10/25 05:24:05;;;;;;;3.13;1.90;;;;;;;;;;6293875;28;20139;-80
2022/10/25 05:27:06;;;;;;;7.20;2.75;;;;;;;;;;6278433;28;20105;-79
2022/10/25 05:30:08;;;;;;;4.32;2.00;;;;;;;;;;6302326;28;20118;-80
2022/10/25 05:33:10;;;;;;;5.53;1.85;;;;;;;;;;6290604;28;20070;-79
2022/10/25 05:36:13;;;;;;;6.32;2.10;;;;;;;;;;6292759;28;20059;-80
2022/10/25 05:39:15;;;;;;;4.90;1.60;;;;;;;;;;6278558;28;20048;-80
2022/10/25 05:42:16;;;;;;;6.10;1.70;;;;;;;;;;6289831;28;20040;-79
2022/10/25 05:45:19;;;;;;;6.30;2.00;;;;;;;;;;6297095;28;20036;-80
2022/10/25 05:48:20;;;;;;;9.77;1.95;;;;;;;;;;6298384;28;20101;-80
2022/10/25 05:51:31;;;;;;;4.03;1.40;;;;;;;;;;6275589;28;20078;-79
2022/10/25 05:54:37;;;;;;;2.88;1.35;;;;;;;;;;6296267;28;20062;-79
2022/10/25 05:57:39;;;;;;;4.93;1.58;;;;;;;;;;6293792;28;20049;-80
2022/10/25 06:00:41;;;;;;;4.43;1.30;;;;;;;;;;6279356;28;20044;-80
2022/10/25 06:03:42;;;;;;;6.38;1.52;;;;;;;;;;6295248;28;20411;-79
2022/10/25 06:06:45;;;;;;;6.90;1.63;;;;;;;;;;6293890;28;20591;-80
2022/10/25 06:09:47;;;;;;;5.38;1.40;;;;;;;;;;6299493;28;20070;-82
2022/10/25 06:12:49;;;;;;;8.63;1.50;;;;;;;;;;6298934;28;20043;-81
2022/10/25 06:15:51;;;;;;;6.45;1.17;;;;;;;;;;6284413;28;20044;-81
2022/10/25 06:18:53;;;;;;;3.65;1.63;;;;;;;;;;6296429;28;20048;-80
2022/10/25 06:21:55;;;;;;;4.87;1.30;;;;;;;;;;6301072;28;20549;-80
2022/10/25 06:24:57;;;;;;;4.65;1.50;;;;;;;;;;6298686;28;20479;-80
2022/10/25 06:27:58;;;;;;;4.38;1.23;;;;;;;;;;6286074;28;20500;-80
2022/10/25 06:31:05;;;;;;;7.38;1.40;;;;;;;;;;6279314;28;20047;-80
2022/10/25 06:34:07;;;;;;;4.60;1.83;;;;;;;;;;6293580;28;20044;-79
2022/10/25 06:37:09;;;;;;;8.38;2.22;;;;;;;;;;6297782;28;20181;-79
2022/10/25 06:40:11;;;;;;;4.65;1.98;;;;;;;;;;6294001;28;20055;-79
2022/10/25 06:43:13;;;;;;;6.63;2.00;;;;;;;;;;6280484;28;20056;-79
2022/10/25 06:46:26;;;;;;;6.55;1.60;;;;;;;;;;6294444;28;20051;-78
2022/10/25 06:49:28;;;;;;;4.57;1.35;;;;;;;;;;6292405;28;20109;-79
2022/10/25 06:52:30;;;;;;;4.90;1.95;;;;;;;;;;6299228;28;20816;-81
2022/10/25 06:55:32;;;;;;;7.22;2.00;;;;;;;;;;6296410;28;22641;-80
2022/10/25 06:58:35;;;;;;;8.40;1.90;;;;;;;;;;6279085;28;20044;-79
2022/10/25 07:01:37;;;;;;;5.95;1.60;;;;;;;;;;6303587;28;20116;-78
2022/10/25 07:04:38;;;;;;;6.25;1.92;;;;;;;;;;6275893;28;20431;-79
2022/10/25 07:07:40;;;;;;;4.55;1.40;;;;;;;;;;6280592;28;23117;-79
2022/10/25 07:10:42;;;;;;;2.75;1.75;;;;;;;;;;6293679;28;20046;-78
2022/10/25 07:13:44;;;;;;;6.82;2.50;;;;;;;;;;6276039;28;20047;-80
2022/10/25 07:16:46;;;;;;;8.13;2.20;;;;;;;;;;6290842;28;20059;-79
2022/10/25 07:19:48;;;;;;;5.95;1.27;;;;;;;;;;6296363;28;20047;-80
2022/10/25 07:22:50;;;;;;;7.03;2.10;;;;;;;;;;6293786;28;20170;-80
2022/10/25 07:25:53;;;;;;;4.13;1.52;;;;;;;;;;6293894;28;20417;-79
2022/10/25 07:28:56;;;;;;;3.42;1.17;;;;;;;;;;6281080;28;20465;-78
2022/10/25 07:31:58;;;;;;;5.25;1.27;;;;;;;;;;6293477;28;20546;-79
2022/10/25 07:35:00;;;;;;;6.72;1.20;;;;;;;;;;6293757;28;20606;-79
2022/10/25 07:38:01;;;;;;;9.70;2.28;;;;;;;;;;6278383;28;20056;-79
2022/10/25 07:41:04;;;;;;;6.38;1.60;;;;;;;;;;6292333;28;20507;-79
2022/10/25 07:44:06;;;;;;;5.93;1.30;;;;;;;;;;6293194;28;20051;-80
2022/10/25 07:47:12;;;;;;;5.55;1.50;;;;;;;;;;6301325;28;20052;-80
2022/10/25 07:50:14;;;;;;;7.88;1.25;;;;;;;;;;6295169;28;20048;-80
2022/10/25 07:53:16;;;;;;;7.95;1.48;;;;;;;;;;6285208;28;20067;-80
2022/10/25 07:56:19;;;;;;;5.25;1.50;;;;;;;;;;6295283;28;20044;-80
2022/10/25 07:59:24;;;;;;;5.47;1.13;;;;;;;;;;6286365;28;20607;-80
2022/10/25 08:02:28;;;;;;;3.42;1.10;;;;;;;;;;6292476;28;20048;-79
2022/10/25 08:05:29;;;;;;;4.38;1.20;;;;;;;;;;6270312;28;20185;-79
2022/10/25 08:08:31;;;;;;;6.07;1.40;;;;;;;;;;6290399;28;20161;-79
2022/10/25 08:11:33;;;;;;;6.20;1.67;;;;;;;;;;6288181;28;20527;-79
2022/10/25 08:14:35;;;;;;;6.20;1.10;;;;;;;;;;6294957;28;21004;-78
2022/10/25 08:17:42;;;;;;;4.80;1.30;;;;;;;;;;6288369;28;20720;-79
2022/10/25 08:20:44;;;;;;;1.95;1.08;;;;;;;;;;6291684;28;21448;-78
2022/10/25 08:24:04;;;;;;;6.35;1.23;;;;;;;;;;6288861;28;20051;-79
2022/10/25 08:27:06;;;;;;;3.67;0.90;;;;;;;;;;6271127;28;20075;-79
2022/10/25 08:30:08;;;;;;;5.63;1.02;;;;;;;;;;6278435;28;21241;-78
2022/10/25 08:33:10;;;;;;;3.90;0.97;;;;;;;;;;6285144;28;20130;-79
2022/10/25 08:36:12;;;;;;;3.63;1.10;;;;;;;;;;6287591;28;20052;-79
2022/10/25 08:39:16;;;;;;;4.13;1.30;;;;;;;;;;6289185;28;21379;-78
2022/10/25 08:42:49;;;;;;;5.88;1.27;;;;;;;;;;6291119;28;20051;-78
2022/10/25 08:46:09;;;;;;;5.32;1.10;;;;;;;;;;6287022;28;20458;-79
2022/10/25 08:49:21;;;;;;;5.40;1.17;;;;;;;;;;6290312;28;20048;-79
2022/10/25 08:52:33;;;;;;;4.63;1.40;;;;;;;;;;6300436;28;20508;-79
2022/10/25 08:55:38;;;;;;;2.13;1.10;;;;;;;;;;6299941;28;20043;-79
2022/10/25 08:59:01;;;;;;;2.78;1.20;;;;;;;;;;6302353;28;20089;-79
2022/10/25 09:02:13;;;;;;;4.60;1.50;;;;;;;;;;6300720;28;20051;-79
2022/10/25 09:05:40;;;;;;;5.70;1.60;;;;;;;;;;6296552;28;20687;-79
2022/10/25 09:09:22;;;;;;;4.28;1.05;;;;;;;;;;6295881;28;20055;-80
2022/10/25 09:12:32;;;;;;;3.35;1.10;;;;;;;;;;6298869;28;20036;-78
2022/10/25 09:16:05;;;;;;;4.68;1.10;;;;;;;;;;6288861;28;20059;-84
2022/10/25 09:19:15;;;;;;;3.53;1.10;;;;;;;;;;6286856;28;20521;-83
2022/10/25 09:22:28;;;;;;;5.35;2.15;;;;;;;;;;6291251;28;20080;-84
2022/10/25 09:25:37;;;;;;;;;;;;;;;;;;6288554;28;20037;-83
2022/10/25 09:29:01;;;;;;;6.30;1.05;;;;;;;;;;6292732;28;20039;-80
2022/10/25 09:32:20;;;;;;;4.13;1.00;;;;;;;;;;6288837;28;20104;-78
2022/10/25 09:35:42;;;;;;;3.22;0.90;;;;;;;;;;6288933;28;20522;-79
2022/10/25 09:38:47;;;;;;;3.67;1.08;;;;;;;;;;6291911;28;20086;-79
2022/10/25 09:41:53;;;;;;;3.22;0.90;;;;;;;;;;6292493;28;20052;-79
2022/10/25 09:45:03;;;;;;;3.60;1.20;;;;;;;;;;6284451;28;20047;-79
2022/10/25 09:48:24;;;;;;;2.10;0.80;;;;;;;;;;6290207;28;20184;-79
2022/10/25 09:51:34;;;;;;;3.03;1.00;;;;;;;;;;6298418;28;20133;-80
2022/10/25 09:54:44;;;;;;;4.25;0.70;;;;;;;;;;6280450;28;20061;-79
2022/10/25 09:57:45;;;;;;;2.67;0.80;;;;;;;;;;6296254;28;20048;-79
2022/10/25 10:00:50;;;;;;;5.32;1.00;;;;;;;;;;6289010;28;20419;-79
2022/10/25 10:03:53;;;;;;;2.33;0.75;;;;;;;;;;6288809;28;20064;-78
2022/10/25 10:07:06;;;;;;;1.60;0.80;;;;;;;;;;6292032;28;20416;-78
2022/10/25 10:10:12;;;;;;;4.72;1.13;;;;;;;;;;6296905;28;20048;-80
2022/10/25 10:13:27;;;;;;;3.15;0.95;;;;;;;;;;6294070;28;20353;-80
2022/10/25 10:16:37;;;;;;;4.38;0.80;;;;;;;;;;6274352;28;20040;-79
2022/10/25 10:19:40;;;;;;;8.38;1.85;;;;;;;;;;6273894;28;20052;-78
2022/10/25 10:22:51;;;;;;;2.67;0.88;;;;;;;;;;6296827;28;20052;-79
2022/10/25 10:25:54;;;;;;;6.18;1.05;;;;;;;;;;6285615;28;20063;-79
2022/10/25 10:29:13;;;;;;;1.35;0.77;;;;;;;;;;6290088;28;20048;-80
2022/10/25 10:32:25;;;;;;;3.15;1.30;;;;;;;;;;6292596;28;20056;-81
2022/10/25 10:35:34;;;;;;;7.15;1.65;;;;;;;;;;6297507;28;20097;-81
2022/10/25 10:38:36;;;;;;;3.45;0.90;;;;;;;;;;6302452;28;20502;-82
2022/10/25 10:42:01;;;;;;;2.70;1.25;;;;;;;;;;6294679;28;20051;-81
2022/10/25 10:45:06;;;;;;;3.95;0.70;;;;;;;;;;6283485;28;20411;-81
2022/10/25 10:48:19;;;;;;;2.88;1.40;;;;;;;;;;6296171;28;20048;-81
2022/10/25 10:51:38;;;;;;;5.47;1.27;;;;;;;;;;6272792;28;20055;-81
2022/10/25 10:54:49;;;;;;;2.60;1.00;;;;;;;;;;6280821;28;20047;-80
2022/10/25 10:57:53;;;;;;;9.63;1.15;;;;;;;;;;6295543;28;20180;-79
2022/10/25 11:01:04;;;;;;;4.13;0.95;;;;;;;;;;6293712;28;20135;-80
2022/10/25 11:04:06;;;;;;;1.83;0.93;;;;;;;;;;6289706;28;20431;-80
2022/10/25 11:07:24;;;;;;;4.53;0.80;;;;;;;;;;6287302;28;20045;-80
2022/10/25 11:10:26;;;;;;;3.15;1.10;;;;;;;;;;6280979;28;20103;-80
2022/10/25 11:13:28;;;;;;;4.20;0.90;;;;;;;;;;6293536;28;20047;-80
2022/10/25 11:16:42;;;;;;;4.32;0.70;;;;;;;;;;6296314;28;20048;-79
2022/10/25 11:20:13;;;;;;;3.03;0.80;;;;;;;;;;6292391;28;20040;-79
2022/10/25 11:23:35;;;;;;;2.58;0.60;;;;;;;;;;6271022;28;20122;-82
2022/10/25 11:27:06;;;;;;;2.45;0.65;;;;;;;;;;6271886;28;20037;-80
2022/10/25 11:30:08;;;;;;;4.10;0.70;;;;;;;;;;6293621;28;20170;-79
2022/10/25 11:33:15;;;;;;;3.60;1.00;;;;;;;;;;6291544;28;20052;-79
2022/10/25 11:36:39;;;;;;;1.40;0.70;;;;;;;;;;6297685;28;20073;-80
2022/10/25 11:40:25;;;;;;;3.22;0.80;;;;;;;;;;6301916;28;20051;-79
2022/10/25 11:43:46;;;;;;;3.08;0.52;;;;;;;;;;6208365;28;20057;-79
2022/10/25 11:46:48;;;;;;;2.00;0.70;;;;;;;;;;6300384;28;20036;-78
2022/10/25 11:50:19;;;;;;;2.38;0.60;;;;;;;;;;6295952;28;20076;-79
2022/10/25 11:53:29;;;;;;;0.75;0.50;;;;;;;;;;6295791;28;20065;-79
2022/10/25 11:56:46;;;;;;;2.17;0.70;;;;;;;;;;6276240;28;20125;-79
2022/10/25 12:00:20;;;;;;;4.38;0.65;;;;;;;;;;6294190;28;20044;-79
2022/10/25 12:03:56;;;;;;;1.33;0.40;;;;;;;;;;6281275;28;20067;-80
2022/10/25 12:07:16;;;;;;;2.40;0.50;;;;;;;;;;6291985;28;20044;-81
2022/10/25 12:10:19;;;;;;;3.35;0.60;;;;;;;;;;6292070;28;20047;-81
2022/10/25 12:13:30;;;;;;;1.48;0.45;;;;;;;;;;6269267;28;20036;-82
2022/10/25 12:16:35;;;;;;;1.95;0.50;;;;;;;;;;6241904;28;20802;-83
2022/10/25 12:19:44;;;;;;;1.77;0.50;;;;;;;;;;6282472;28;20057;-83
2022/10/25 12:22:48;;;;;;;3.08;0.60;;;;;;;;;;6285085;28;20499;-83
2022/10/25 12:25:59;;;;;;;2.03;0.65;;;;;;;;;;6298107;28;20044;-83
2022/10/25 12:29:10;;;;;;;5.05;0.82;;;;;;;;;;6291705;28;20068;-83
2022/10/25 12:32:21;;;;;;;2.08;0.60;;;;;;;;;;6290620;28;20050;-83
2022/10/25 12:35:30;;;;;;;2.42;0.65;;;;;;;;;;6292249;27;20044;-82
2022/10/25 12:38:37;;;;;;;2.58;0.52;;;;;;;;;;6288236;28;20044;-81
2022/10/25 12:41:43;;;;;;;1.63;0.60;;;;;;;;;;6302487;28;20040;-81
2022/10/25 12:45:23;;;;;;;1.83;0.50;;;;;;;;;;6300177;28;20052;-81
2022/10/25 12:48:31;;;;;;;3.75;0.55;;;;;;;;;;6300933;27;21377;-82
2022/10/25 12:51:40;;;;;;;1.10;0.47;;;;;;;;;;6304053;27;20044;-82
2022/10/25 12:55:04;;;;;;;4.32;0.70;;;;;;;;;;6303145;28;20044;-81
2022/10/25 12:58:21;;;;;;;2.08;0.57;;;;;;;;;;6283846;27;20063;-80
2022/10/25 13:01:47;;;;;;;1.60;0.47;;;;;;;;;;6291357;28;20048;-81
2022/10/25 13:05:27;;;;;;;1.85;0.50;;;;;;;;;;6281226;28;20052;-82
2022/10/25 13:08:30;;;;;;;3.67;1.23;;;;;;;;;;6296114;27;20051;-80
2022/10/25 13:11:39;;;;;;;2.15;0.80;;;;;;;;;;6305992;27;20170;-79
2022/10/25 13:14:53;;;;;;;3.15;0.50;;;;;;;;;;6288232;27;20048;-81
2022/10/25 13:18:04;;;;;;;2.47;0.60;;;;;;;;;;6279342;28;20067;-81
2022/10/25 13:21:15;;;;;;;3.13;0.45;;;;;;;;;;6287183;27;20055;-79
2022/10/25 13:24:36;;;;;;;1.10;0.50;;;;;;;;;;6312597;28;20044;-80
2022/10/25 13:27:59;;;;;;;3.22;0.55;;;;;;;;;;6308083;27;20040;-80
2022/10/25 13:31:35;;;;;;;1.52;0.60;;;;;;;;;;6298020;28;20048;-81
2022/10/25 13:34:36;;;;;;;2.78;0.50;;;;;;;;;;6278273;28;20149;-80
2022/10/25 13:37:40;;;;;;;1.70;0.68;;;;;;;;;;6292635;28;20065;-80
2022/10/25 13:40:42;;;;;;;2.22;0.60;;;;;;;;;;6297170;28;20047;-82
2022/10/25 13:43:59;;;;;;;2.60;0.60;;;;;;;;;;6304000;28;20035;-80
2022/10/25 13:47:01;;;;;;;3.25;0.60;;;;;;;;;;6302636;28;20052;-78
2022/10/25 13:50:27;;;;;;;1.45;0.52;;;;;;;;;;6288965;28;20062;-81
2022/10/25 13:53:36;;;;;;;2.45;0.60;;;;;;;;;;6288379;28;20044;-81
2022/10/25 13:56:51;;;;;;;2.65;0.93;;;;;;;;;;6295840;28;20040;-79
2022/10/25 13:59:53;;;;;;;4.40;0.40;;;;;;;;;;6274325;28;20074;-80
2022/10/25 14:03:04;;;;;;;0.98;0.45;;;;;;;;;;6271227;28;20050;-79
2022/10/25 14:06:10;;;;;;;2.33;0.50;;;;;;;;;;6300103;28;20139;-79
2022/10/25 14:09:32;;;;;;;0.88;0.50;;;;;;;;;;6286495;28;20052;-78
2022/10/25 14:12:34;;;;;;;2.35;0.80;;;;;;;;;;6295213;28;20051;-80
2022/10/25 14:15:43;;;;;;;3.15;0.55;;;;;;;;;;6301831;28;20048;-79
2022/10/25 14:18:45;;;;;;;6.13;0.90;;;;;;;;;;6285385;28;20062;-80
2022/10/25 14:21:49;;;;;;;1.00;0.43;;;;;;;;;;6305352;28;20044;-80
2022/10/25 14:24:53;;;;;;;2.90;0.70;;;;;;;;;;6294297;28;20044;-80
2022/10/25 14:28:12;;;;;;;1.98;0.60;;;;;;;;;;6280659;28;20060;-79
2022/10/25 14:31:20;;;;;;;1.40;0.43;;;;;;;;;;6269084;28;20052;-79
2022/10/25 14:34:25;;;;;;;3.33;0.50;;;;;;;;;;6293474;28;20059;-79
2022/10/25 14:37:27;;;;;;;1.80;0.60;;;;;;;;;;6304336;28;20054;-79
2022/10/25 14:40:30;;;;;;;3.42;0.60;;;;;;;;;;6304323;28;20115;-79
2022/10/25 14:43:36;;;;;;;4.57;0.95;;;;;;;;;;6242313;28;20032;-79
2022/10/25 14:46:43;;;;;;;2.70;0.50;;;;;;;;;;6295514;28;20044;-78
2022/10/25 14:49:44;;;;;;;2.13;0.50;;;;;;;;;;6301122;28;20701;-79
2022/10/25 14:52:48;;;;;;;3.65;0.80;;;;;;;;;;6297987;28;20058;-79
2022/10/25 14:55:53;;;;;;;3.28;0.82;;;;;;;;;;6302917;28;20051;-79
2022/10/25 14:58:56;;;;;;;1.30;0.60;;;;;;;;;;6297846;28;20497;-79
2022/10/25 15:02:00;;;;;;;1.65;0.80;;;;;;;;;;6304608;28;20051;-80
2022/10/25 15:05:03;;;;;;;1.48;0.50;;;;;;;;;;6276236;28;20584;-79
2022/10/25 15:08:18;;;;;;;2.08;0.60;;;;;;;;;;6304445;28;20050;-80
2022/10/25 15:11:20;;;;;;;2.75;0.95;;;;;;;;;;6298361;28;20092;-80
2022/10/25 15:14:22;;;;;;;2.83;0.63;;;;;;;;;;6283067;28;20056;-79
2022/10/25 15:17:27;;;;;;;1.60;0.50;;;;;;;;;;6300285;28;20086;-79
2022/10/25 15:20:30;;;;;;;2.58;0.60;;;;;;;;;;6287360;28;20515;-79
2022/10/25 15:23:33;;;;;;;1.30;0.70;;;;;;;;;;6283383;28;20305;-80
2022/10/25 15:26:34;;;;;;;2.25;0.75;;;;;;;;;;6268687;28;20419;-80
2022/10/25 15:29:39;;;;;;;1.65;0.57;;;;;;;;;;6295151;28;20061;-80
2022/10/25 15:32:41;;;;;;;2.67;0.60;;;;;;;;;;6273155;28;20681;-80
2022/10/25 15:35:47;;;;;;;1.02;0.55;;;;;;;;;;6290809;28;20427;-81
2022/10/25 15:38:54;;;;;;;2.72;0.70;;;;;;;;;;6275829;28;20594;-81
2022/10/25 15:42:16;;;;;;;4.05;0.90;;;;;;;;;;6277993;28;20048;-82
2022/10/25 15:45:18;;;;;;;2.53;0.80;;;;;;;;;;6289392;28;20043;-80
2022/10/25 15:48:22;;;;;;;3.47;0.70;;;;;;;;;;6291301;28;20459;-81
2022/10/25 15:51:24;;;;;;;2.78;0.65;;;;;;;;;;6291082;28;20054;-80
2022/10/25 15:54:33;;;;;;;2.95;0.73;;;;;;;;;;6274555;28;20039;-79
2022/10/25 15:57:35;;;;;;;2.30;0.90;;;;;;;;;;6296148;28;20059;-79
2022/10/25 16:00:37;;;;;;;4.72;1.08;;;;;;;;;;6296682;28;20052;-81
2022/10/25 16:03:38;;;;;;;4.33;1.83;;;;;;;;;;6298798;28;20129;-79
2022/10/25 16:06:42;;;;;;;5.05;0.68;;;;;;;;;;6300392;28;20044;-80
2022/10/25 16:09:43;;;;;;;2.95;0.82;;;;;;;;;;6299608;28;20040;-80
2022/10/25 16:12:48;;;;;;;4.20;1.40;;;;;;;;;;6302038;28;20056;-80
2022/10/25 16:15:50;;;;;;;2.40;1.70;;;;;;;;;;6312151;28;20051;-80
2022/10/25 16:18:52;;;;;;;2.67;1.50;;;;;;;;;;6269261;28;20036;-81
2022/10/25 16:21:55;;;;;;;9.70;3.80;;;;;;;;;;6276185;28;20134;-78
2022/10/25 16:24:56;;;;;;;9.52;4.43;;;;;;;;;;6293158;28;20039;-79
2022/10/25 16:27:59;;;;;;;14.13;6.80;;;;;;;;;;6292131;28;20131;-78
2022/10/25 16:31:02;;;;;;;17.75;10.10;;;;;;;;;;6289810;28;20055;-79
2022/10/25 16:34:04;;;;;;;12.10;8.93;;;;;;;;;;6288919;28;20128;-79
2022/10/25 16:37:05;;;;;;;13.88;8.35;;;;;;;;;;6281541;28;20047;-78
2022/10/25 16:40:15;;;;;;;5.32;3.63;;;;;;;;;;6262772;28;20549;-79
2022/10/25 16:43:17;;;;;;;5.53;3.75;;;;;;;;;;6288706;28;20093;-77
2022/10/25 16:46:20;;;;;;;5.43;1.90;;;;;;;;;;6295606;28;20044;-77
2022/10/25 16:49:21;;;;;;;4.32;2.45;;;;;;;;;;6289435;28;20051;-78
2022/10/25 16:52:23;;;;;;;7.88;3.10;;;;;;;;;;6299202;28;20145;-80
2022/10/25 16:55:27;;;;;;;5.63;3.30;;;;;;;;;;6297447;28;20036;-79
2022/10/25 16:58:29;;;;;;;5.38;3.13;;;;;;;;;;6260621;28;20051;-79
2022/10/25 17:01:35;;;;;;;8.95;4.00;;;;;;;;;;6283431;28;22046;-79
2022/10/25 17:04:42;;;;;;;54.60;22.77;;;;;;;;;;6267783;28;20752;-80
2022/10/25 17:07:44;;;;;;;30.10;11.63;;;;;;;;;;6290799;28;20048;-79
2022/10/25 17:10:46;;;;;;;15.30;6.03;;;;;;;;;;6298251;28;20036;-79
2022/10/25 17:13:48;;;;;;;57.83;24.77;;;;;;;;;;6296083;28;20154;-80
2022/10/25 17:16:52;;;;;;;50.75;23.80;;;;;;;;;;6292287;28;20043;-78
2022/10/25 17:19:53;;;;;;;39.30;19.55;;;;;;;;;;6285937;28;20040;-80
2022/10/25 17:22:56;;;;;;;26.35;13.23;;;;;;;;;;6299739;28;20052;-78
2022/10/25 17:25:59;;;;;;;10.77;5.82;;;;;;;;;;6305997;28;20062;-79
2022/10/25 17:29:00;;;;;;;16.88;7.28;;;;;;;;;;6285535;28;20060;-78
2022/10/25 17:32:02;;;;;;;17.40;8.77;;;;;;;;;;6303136;28;20066;-79
2022/10/25 17:35:04;;;;;;;20.63;12.52;;;;;;;;;;6309499;28;20243;-77
2022/10/25 17:38:09;;;;;;;20.93;9.87;;;;;;;;;;6308835;28;20051;-79
2022/10/25 17:41:11;;;;;;;20.13;12.60;;;;;;;;;;6291959;28;20636;-78
2022/10/25 17:44:13;;;;;;;10.27;4.40;;;;;;;;;;6297273;28;20414;-79
2022/10/25 17:47:15;;;;;;;15.23;7.68;;;;;;;;;;6307505;28;20139;-78
2022/10/25 17:50:19;;;;;;;10.63;6.30;;;;;;;;;;6306031;27;20482;-79
2022/10/25 17:53:20;;;;;;;12.20;3.78;;;;;;;;;;6302289;28;20040;-79
2022/10/25 17:56:24;;;;;;;11.98;5.00;;;;;;;;;;6299948;28;20051;-79
2022/10/25 17:59:27;;;;;;;10.15;4.53;;;;;;;;;;6310093;28;20180;-80
2022/10/25 18:02:29;;;;;;;9.73;5.35;;;;;;;;;;6310982;28;20145;-79
2022/10/25 18:05:31;;;;;;;11.05;5.93;;;;;;;;;;6291574;28;20544;-79
2022/10/25 18:08:33;;;;;;;17.48;8.63;;;;;;;;;;6305201;28;20487;-79
2022/10/25 18:11:38;;;;;;;22.02;9.02;;;;;;;;;;6310246;28;20395;-79
2022/10/25 18:14:39;;;;;;;22.20;8.82;;;;;;;;;;6289372;28;20127;-79
2022/10/25 18:17:41;;;;;;;18.65;6.97;;;;;;;;;;6300296;28;20471;-78
2022/10/25 18:20:45;;;;;;;13.80;7.25;;;;;;;;;;6283664;28;20052;-80
2022/10/25 18:23:56;;;;;;;12.02;5.40;;;;;;;;;;6316370;28;20043;-79
2022/10/25 18:26:58;;;;;;;8.52;5.78;;;;;;;;;;6315945;28;20133;-78
2022/10/25 18:30:00;;;;;;;9.90;6.20;;;;;;;;;;6313324;28;20123;-79
2022/10/25 18:33:02;;;;;;;12.95;7.60;;;;;;;;;;6313856;28;20067;-80
2022/10/25 18:36:10;;;;;;;24.58;13.90;;;;;;;;;;6315218;28;20048;-79
2022/10/25 18:39:12;;;;;;;18.85;11.57;;;;;;;;;;6286807;28;20044;-79
2022/10/25 18:42:13;;;;;;;15.63;10.20;;;;;;;;;;6294778;28;20155;-78